Date,TemperatureHighF,TemperatureAvgF,TemperatureLowF,DewpointHighF,DewpointAvgF,DewpointLowF,HumidityHigh,HumidityAvg,HumidityLow,PressureMaxIn,PressureMinIn,WindSpeedMaxMPH,WindSpeedAvgMPH,GustSpeedMaxMPH,PrecipitationSumIn
2013-6-15,67.8,50.4,66.9,65.1,23.8,-99.9,93,70,92,29.99,29.99,2,-249,0,0.64
2013-6-16,93.4,75.2,64.6,70.2,64.4,60.1,99,73,36,30.02,29.96,7,2,0,0.00
2013-6-17,89.2,75.8,62.8,67.7,62.2,53.3,99,67,32,30.02,29.92,7,2,0,0.00
2013-6-18,84.0,73.0,60.3,65.8,59.5,54.0,83,64,44,30.05,29.97,7,1,0,0.00
2013-6-19,84.7,73.4,62.2,68.2,62.6,59.2,90,71,52,30.11,30.01,8,3,0,0.00
2013-6-20,89.6,79.0,66.9,70.7,65.5,60.7,82,64,48,30.06,29.94,11,4,0,0.00
2013-6-21,91.0,80.5,74.7,78.5,71.4,66.3,82,74,63,30.03,29.87,11,2,0,0.00
2013-6-22,92.3,82.7,75.9,76.7,73.5,71.1,86,75,57,30.00,29.86,8,2,0,0.00
2013-6-23,79.3,74.7,64.8,71.9,68.4,63.3,95,81,70,30.02,29.88,8,2,0,0.22
2013-6-24,78.8,70.2,66.0,74.2,68.8,65.7,99,95,85,30.01,29.83,8,2,0,2.00
2013-6-25,90.9,78.3,67.1,76.7,72.2,66.8,99,83,54,29.86,29.73,8,2,0,0.00
2013-6-26,91.2,80.4,71.1,78.1,71.7,65.7,91,76,54,29.86,29.67,9,2,0,0.00
2013-6-27,89.1,76.7,65.7,72.5,67.8,63.5,97,75,54,29.95,29.86,9,2,0,0.00
2013-6-28,84.2,75.6,66.0,66.1,59.7,53.4,91,61,35,29.90,29.78,14,6,0,0.00
2013-6-29,73.9,68.6,63.9,65.0,60.6,58.4,92,76,65,29.94,29.76,13,5,0,0.09
2013-6-30,77.9,67.9,59.7,61.0,56.6,51.6,89,69,41,30.11,29.93,7,2,0,0.00
2013-7-1,80.1,68.8,54.3,59.2,54.4,49.6,94,64,36,30.16,30.10,6,1,0,0.00
2013-7-2,80.4,68.2,59.7,67.5,63.6,58.6,97,86,57,30.15,30.03,6,1,0,0.50
2013-7-3,85.3,70.0,56.3,64.1,60.7,56.0,99,75,48,30.09,29.99,4,2,0,0.00
2013-7-4,89.4,74.2,58.6,64.6,59.9,56.6,95,64,39,30.06,29.95,5,1,0,0.00
2013-7-5,90.0,73.9,63.3,64.6,60.9,57.6,83,66,43,30.00,29.93,6,1,0,0.00
2013-7-6,93.4,78.0,66.6,70.5,65.1,60.3,81,66,44,29.99,29.89,6,2,0,0.00
2013-7-7,93.7,81.2,69.3,73.1,68.7,65.0,87,67,45,29.94,29.88,5,2,0,0.00
2013-7-8,87.4,80.5,75.4,77.2,71.0,66.3,92,73,62,29.99,29.91,5,1,0,0.02
2013-7-9,97.2,81.8,73.6,79.4,75.2,71.5,95,82,55,29.99,29.87,11,1,0,0.03
2013-7-10,82.0,75.9,64.4,76.2,64.1,57.1,93,69,44,30.06,29.89,8,3,0,0.00
2013-7-11,86.0,76.4,61.7,63.7,60.1,58.1,93,59,42,30.13,30.03,6,2,0,0.00
2013-7-12,86.9,74.1,62.6,64.3,60.6,57.5,86,65,42,30.10,30.01,8,3,0,0.00
2013-7-13,77.4,70.8,64.2,65.4,60.7,55.6,87,71,62,30.08,30.02,7,3,0,0.01
2013-7-14,87.6,74.8,61.3,68.8,63.9,59.6,95,71,46,30.17,30.07,7,2,0,0.00
2013-7-15,91.0,77.4,64.9,74.5,69.2,62.6,93,77,56,30.24,30.14,10,2,0,0.00
2013-7-16,94.3,83.1,72.1,76.0,72.8,69.8,93,73,52,30.27,30.20,5,1,0,0.00
2013-7-17,98.2,84.2,71.8,76.0,72.2,69.3,93,70,45,30.31,30.18,3,0,0,0.00
2013-7-18,98.6,84.8,72.7,75.0,71.0,68.6,89,66,42,30.18,29.93,8,1,0,0.00
2013-7-19,97.2,84.6,74.7,76.4,70.7,66.2,77,64,49,29.94,29.80,11,2,0,0.00
2013-7-20,89.1,76.5,62.6,67.3,64.3,60.5,94,68,44,29.96,29.85,4,1,0,0.00
2013-7-21,81.9,72.3,65.3,70.5,66.6,62.6,96,83,64,29.91,29.80,5,1,0,0.18
2013-7-22,95.5,77.5,65.3,76.2,69.2,62.2,99,78,48,29.88,29.72,8,2,0,0.04
2013-7-23,73.9,67.0,63.5,65.0,62.3,58.4,92,85,65,29.98,29.74,4,2,0,0.00
2013-7-24,79.9,68.8,57.9,61.7,59.0,56.1,95,73,49,30.06,29.97,4,1,0,0.00
2013-7-25,87.8,73.8,59.4,68.2,62.8,57.7,95,71,43,30.07,29.96,6,1,0,0.01
2013-7-26,78.3,70.6,60.6,69.9,62.1,54.1,98,76,49,30.01,29.94,9,3,0,0.22
2013-7-27,68.4,60.5,52.7,54.5,50.5,46.3,96,72,46,30.07,29.97,9,3,0,0.00
2013-7-28,75.7,64.0,52.2,55.8,51.7,47.4,89,66,45,30.06,29.97,10,3,0,0.00
2013-7-29,75.4,64.4,49.8,60.5,55.8,49.0,98,76,56,30.14,30.05,7,2,0,0.00
2013-7-30,70.2,66.3,63.0,67.1,64.7,60.0,99,95,79,30.09,30.01,6,2,0,0.19
2013-7-31,83.3,71.9,64.9,69.5,66.0,64.6,99,83,59,30.11,29.98,5,1,0,0.00
2013-8-1,88.2,74.3,61.3,67.3,63.7,60.6,99,73,41,30.07,29.90,5,1,0,0.00
2013-8-2,85.5,73.9,65.7,69.4,65.4,59.1,92,76,55,30.00,29.87,6,2,0,0.00
2013-8-3,79.0,70.2,60.4,62.7,58.9,54.5,92,70,44,30.16,30.00,5,1,0,0.00
2013-8-4,83.5,69.5,53.8,60.5,57.3,52.1,95,68,42,30.20,30.05,8,2,0,0.00
2013-8-5,87.8,73.3,64.6,73.1,66.8,58.6,92,80,62,30.05,29.79,6,2,0,0.00
2013-8-6,93.4,77.2,66.0,75.0,70.5,65.4,99,82,54,29.88,29.77,6,1,0,0.23
2013-8-7,80.4,73.1,64.0,71.1,66.6,61.3,98,81,63,29.99,29.78,7,2,0,0.00
2013-8-8,81.5,69.8,57.2,65.2,61.5,56.1,96,77,53,30.02,29.95,5,1,0,0.00
2013-8-9,76.6,67.3,62.2,66.6,62.2,59.6,96,84,65,30.12,29.98,3,0,0,0.00
2013-8-10,84.0,70.5,56.1,63.6,58.7,54.0,98,70,44,30.20,30.09,5,1,0,0.00
2013-8-11,90.5,76.0,62.2,65.9,62.0,57.8,86,64,43,30.13,29.99,6,1,0,0.00
2013-8-12,83.3,72.6,60.8,68.6,63.2,56.9,97,74,48,30.04,29.96,7,2,0,0.05
2013-8-13,77.4,65.9,55.9,61.5,57.0,51.8,95,75,51,30.17,30.02,5,1,0,0.00
2013-8-14,77.7,63.6,49.1,56.8,51.1,47.6,97,68,37,30.24,30.12,4,1,0,0.00
2013-8-15,74.1,66.0,56.7,59.0,55.0,51.3,90,68,56,30.15,30.08,8,1,0,0.00
2013-8-16,81.1,65.9,50.9,59.7,55.0,49.8,98,71,42,30.20,30.13,5,1,0,0.00
2013-8-17,83.7,66.1,52.3,61.8,56.4,51.2,98,74,42,30.22,30.11,5,1,0,0.00
2013-8-18,83.1,69.7,53.1,60.9,57.7,50.9,97,68,46,30.19,30.05,5,1,0,0.00
2013-8-19,89.4,73.0,58.1,66.7,61.3,55.8,93,69,41,30.09,29.98,6,1,0,0.00
2013-8-20,90.5,76.3,66.7,70.3,65.0,60.9,83,69,48,30.02,29.94,6,1,0,0.00
2013-8-21,93.2,81.0,69.8,71.7,68.0,64.9,85,66,47,30.02,29.95,10,1,0,0.00
2013-8-22,84.7,76.3,68.7,70.3,68.1,66.2,93,77,62,30.10,29.98,5,1,0,0.00
2013-8-23,88.2,76.5,67.1,72.6,68.9,65.3,94,78,60,30.09,30.03,6,2,0,0.00
2013-8-24,90.1,79.7,68.9,75.1,70.1,66.0,91,74,57,30.16,30.06,6,2,0,0.00
2013-8-25,95.9,82.8,69.4,73.0,68.7,63.7,82,64,43,30.18,30.07,5,2,0,0.00
2013-8-26,95.7,80.6,72.7,74.2,69.9,66.5,84,71,50,30.11,29.97,6,1,0,0.00
2013-8-27,99.7,86.0,75.2,72.0,69.5,67.7,80,60,38,29.97,29.86,11,3,0,0.00
2013-8-28,100.4,82.8,75.4,73.9,69.2,65.6,76,65,38,29.98,29.91,6,1,0,0.00
2013-8-29,97.2,85.9,72.3,71.3,69.6,67.2,84,61,39,30.00,29.91,4,0,0,0.00
2013-8-30,104.5,91.8,77.7,75.8,70.8,67.8,85,54,33,29.92,29.75,6,2,0,0.00
2013-8-31,92.3,79.3,70.5,74.6,71.5,68.3,94,78,55,29.82,29.76,6,2,0,0.00
2013-9-1,83.3,74.4,64.2,69.0,63.6,57.5,95,71,44,29.92,29.67,10,4,0,0.07
2013-9-2,78.6,66.1,55.9,59.2,55.3,48.2,94,71,36,30.04,29.93,8,2,0,0.00
2013-9-3,83.8,61.4,48.2,58.9,53.6,47.9,99,78,40,30.12,30.01,4,0,0,0.00
2013-9-4,91.9,73.5,55.9,66.0,58.8,51.9,88,63,39,30.14,30.04,6,1,0,0.00
2013-9-5,94.5,76.8,64.6,69.6,64.8,60.6,89,68,41,30.19,30.10,4,0,0,0.00
2013-9-6,93.4,78.8,63.1,65.9,61.7,58.2,91,60,33,30.14,29.95,5,1,0,0.00
2013-9-7,99.1,82.0,70.5,72.4,67.1,60.6,81,62,39,29.95,29.82,5,1,0,0.00
2013-9-8,90.0,79.1,69.8,74.5,70.9,67.4,92,77,58,29.91,29.81,7,2,0,0.00
2013-9-9,101.3,85.0,71.2,70.2,66.5,61.6,91,59,31,29.86,29.78,9,2,0,0.00
2013-9-10,98.6,84.9,71.1,67.3,63.5,61.1,72,51,32,29.99,29.86,10,2,0,0.00
2013-9-11,87.1,77.9,72.5,71.4,67.8,64.1,84,72,56,30.09,29.98,7,1,0,0.00
2013-9-12,78.3,69.5,56.5,66.6,54.0,44.5,93,62,31,30.16,30.04,12,3,0,0.00
2013-9-13,76.5,60.7,47.1,50.6,46.4,41.7,90,63,31,30.24,30.08,4,1,0,0.00
2013-9-14,78.4,62.9,43.3,47.6,44.2,39.8,88,54,30,30.14,29.91,6,1,0,0.00
2013-9-15,67.5,62.1,53.1,62.5,55.7,47.0,95,80,52,30.21,29.86,8,2,0,1.41
2013-9-16,64.0,55.9,50.4,55.1,52.4,49.4,99,88,70,30.37,30.21,8,1,0,0.00
2013-9-17,63.7,57.6,52.0,61.9,55.0,49.6,95,91,85,30.24,29.97,8,3,0,0.12
2013-9-18,90.0,76.2,63.7,72.0,67.1,61.9,94,76,52,29.98,29.72,8,2,0,0.00
2013-9-19,86.0,72.8,64.6,70.9,66.6,62.2,98,82,58,29.85,29.75,6,2,0,1.04
2013-9-20,67.6,60.6,52.9,64.9,53.8,49.3,98,79,60,29.95,29.84,10,4,0,0.01
2013-9-21,73.6,57.0,44.2,52.3,46.5,41.2,89,71,41,30.02,29.89,6,2,0,0.00
2013-9-22,78.4,61.7,46.0,55.1,50.2,44.4,94,69,43,30.00,29.87,7,2,0,0.00
2013-9-23,76.8,62.5,48.7,55.6,50.7,45.9,90,68,43,29.98,29.83,16,4,0,0.00
2013-9-24,78.4,63.6,52.5,60.2,54.1,47.8,85,72,50,29.89,29.81,8,3,0,0.00
2013-9-25,81.0,65.6,51.6,61.7,56.0,49.0,91,73,50,29.93,29.81,5,1,0,0.00
2013-9-26,84.4,70.4,55.6,65.1,59.5,51.8,87,70,49,29.94,29.84,7,3,0,0.00
2013-9-27,85.3,73.7,62.2,66.4,61.9,58.2,87,68,48,29.99,29.88,10,4,0,0.00
2013-9-28,69.6,61.9,50.2,65.2,57.6,48.8,98,86,74,30.02,29.80,10,3,0,0.17
2013-9-29,73.6,51.6,45.0,54.1,48.2,44.7,99,91,40,30.08,29.94,3,0,0,0.01
2013-9-30,77.7,67.4,51.6,57.9,53.1,47.1,86,63,42,29.91,29.74,7,2,0,0.00
2013-10-1,83.5,68.5,58.1,62.3,59.1,56.1,94,75,48,29.96,29.78,7,1,0,0.00
2013-10-2,85.5,70.8,57.0,66.8,59.1,50.9,89,68,49,30.02,29.83,8,2,0,0.00
2013-10-3,82.8,71.5,63.9,68.2,65.1,62.0,97,81,59,29.84,29.72,5,1,0,0.02
2013-10-4,79.7,71.2,63.1,72.6,66.9,61.9,99,87,77,29.86,29.71,9,3,0,1.41
2013-10-5,76.5,58.3,43.7,68.9,47.5,38.5,84,69,43,29.90,29.76,9,3,0,0.00
2013-10-6,49.5,46.9,43.7,47.1,41.6,36.6,97,82,67,29.88,29.73,7,3,0,0.12
2013-10-7,73.6,56.8,43.2,49.8,45.8,40.8,94,70,36,30.04,29.87,10,3,0,0.00
2013-10-8,76.6,61.7,47.8,51.1,46.8,43.8,86,62,34,30.08,29.98,8,1,0,0.00
2013-10-9,75.0,61.8,49.3,53.7,48.5,45.5,88,64,39,30.13,30.03,9,2,0,0.00
2013-10-10,77.2,61.9,46.4,57.2,50.2,43.6,91,68,42,30.09,29.86,8,2,0,0.00
2013-10-11,76.8,65.9,53.4,63.4,57.9,50.7,93,76,61,29.87,29.68,11,3,0,0.00
2013-10-12,67.5,58.2,45.0,62.1,44.3,36.7,87,62,34,30.21,29.74,9,3,0,0.00
2013-10-13,65.3,49.9,35.6,42.0,36.9,33.0,90,65,31,30.44,30.21,4,0,0,0.00
2013-10-14,65.8,53.8,40.1,47.1,39.1,33.7,81,59,40,30.32,29.87,11,4,0,0.00
2013-10-15,60.3,53.7,47.5,57.4,46.8,41.9,96,78,63,29.90,29.79,14,5,0,0.20
2013-10-16,51.3,47.7,41.5,44.3,42.8,39.4,93,83,76,29.99,29.89,11,4,0,0.00
2013-10-17,64.4,49.8,39.2,45.2,39.9,36.4,96,73,37,29.97,29.82,8,2,0,0.00
2013-10-18,50.9,44.9,37.4,43.8,35.7,32.3,88,71,51,30.06,29.92,11,4,0,0.00
2013-10-19,57.9,46.2,36.0,38.3,34.3,30.7,89,65,41,29.97,29.78,10,4,0,0.00
2013-10-20,62.4,49.4,36.9,48.0,40.2,32.5,86,71,53,29.89,29.68,6,2,0,0.00
2013-10-21,51.1,41.6,35.8,39.3,30.4,24.5,86,66,43,30.08,29.90,13,4,0,0.00
2013-10-22,44.6,39.1,34.7,39.1,35.3,32.5,93,86,75,30.05,29.85,7,2,0,0.02
2013-10-23,44.4,37.5,29.5,36.0,31.5,26.0,93,80,51,30.13,30.04,8,3,0,0.02
2013-10-24,43.5,36.3,30.6,31.5,28.0,24.0,91,73,52,30.34,30.13,11,4,0,0.00
2013-10-25,56.1,41.7,28.2,32.0,28.9,26.4,94,64,38,30.39,30.00,8,2,0,0.00
2013-10-26,51.8,44.2,32.9,34.8,29.9,27.3,82,58,40,30.12,29.90,12,5,0,0.00
2013-10-27,61.9,43.2,26.1,35.0,30.7,24.4,94,65,36,30.10,29.83,4,1,0,0.00
2013-10-28,57.2,44.3,33.4,40.3,34.9,29.4,86,71,50,30.27,29.94,11,2,0,0.00
2013-10-29,59.5,47.8,38.3,49.9,41.7,35.1,92,80,65,30.26,30.01,8,4,0,0.00
2013-10-30,60.6,55.6,51.8,60.3,55.0,50.0,99,98,93,30.01,29.58,9,3,0,0.80
2013-10-31,61.7,47.0,41.4,61.4,45.8,41.0,99,96,90,29.58,29.40,9,3,0,0.12
2013-11-1,55.8,46.8,41.2,42.8,40.7,38.5,94,80,56,29.77,29.46,11,4,0,0.00
2013-11-2,52.9,44.8,35.4,40.8,36.4,31.6,88,74,48,30.08,29.78,12,4,0,0.00
2013-11-3,57.0,44.6,31.1,39.8,33.7,29.3,94,69,40,30.12,29.89,9,3,0,0.00
2013-11-4,54.5,49.4,44.4,48.1,43.9,36.9,93,82,66,30.08,29.87,9,2,0,0.32
2013-11-5,57.4,51.0,45.1,56.6,49.3,41.7,99,94,83,30.10,29.70,8,2,0,0.59
2013-11-6,57.4,38.6,32.2,56.8,36.3,26.7,98,91,76,30.26,29.71,10,6,0,0.09
2013-11-7,46.9,36.4,28.2,35.4,30.4,26.3,98,80,60,30.31,30.24,9,3,0,0.00
2013-11-8,56.3,50.3,30.9,39.4,34.6,24.9,78,55,43,30.28,29.77,12,4,0,0.00
2013-11-9,57.7,48.6,37.4,40.2,36.6,31.8,80,64,46,30.27,29.82,14,5,0,0.00
2013-11-10,48.7,39.6,27.5,33.6,29.8,24.1,87,69,50,30.43,30.15,6,2,0,0.00
2013-11-11,49.5,35.8,18.3,38.9,27.5,13.7,90,72,55,30.70,30.07,9,5,0,0.00
2013-11-12,28.8,19.2,11.7,15.9,12.9,8.3,87,77,54,30.87,30.61,7,3,0,0.00
2013-11-13,47.7,32.9,17.6,21.3,16.0,11.9,79,53,28,30.61,30.05,6,2,0,0.00
2013-11-14,52.5,42.6,35.2,30.5,27.1,21.6,67,54,42,30.05,29.87,8,2,0,0.00
2013-11-15,56.7,44.8,32.2,37.8,33.5,27.6,84,66,46,29.91,29.71,4,1,0,0.00
2013-11-16,66.4,56.4,40.1,58.1,51.5,35.9,97,84,74,29.71,29.29,9,3,0,0.13
2013-11-17,57.6,49.3,42.8,56.5,45.7,37.7,99,88,77,29.92,29.22,12,5,0,0.64
2013-11-18,45.5,37.6,28.8,37.4,32.1,26.8,93,81,62,30.27,29.92,9,4,0,0.00
2013-11-19,50.9,39.6,29.7,34.9,31.1,27.0,93,73,54,30.27,30.03,8,4,0,0.00
2013-11-20,42.3,38.6,34.5,37.5,33.8,26.6,98,84,55,30.04,29.89,9,3,0,0.71
2013-11-21,41.2,33.3,28.2,38.8,32.3,26.7,99,96,90,30.39,30.00,10,4,0,0.02
2013-11-22,28.2,22.4,15.6,26.7,19.2,12.7,96,87,79,30.62,30.40,10,5,0,0.00
2013-11-23,18.1,13.0,4.8,14.0,7.4,2.3,89,78,65,30.84,30.59,12,5,0,0.00
2013-11-24,27.3,15.8,2.3,14.6,8.1,-0.4,94,73,51,30.78,30.26,5,1,0,0.00
2013-11-25,37.4,30.2,24.1,28.6,22.7,14.4,90,74,64,30.27,30.07,9,3,0,0.01
2013-11-26,29.5,24.2,15.1,24.9,16.9,10.1,93,74,56,30.34,30.11,17,7,0,0.00
2013-11-27,26.8,18.8,9.3,14.9,10.5,6.0,86,71,50,30.40,30.09,7,3,0,0.00
2013-11-28,31.5,23.7,15.1,20.2,16.7,12.2,90,75,59,30.52,30.06,10,3,0,0.00
2013-11-29,32.7,19.9,11.5,25.2,16.1,9.4,94,85,73,30.55,30.22,5,1,0,0.00
2013-11-30,50.2,36.8,27.3,35.2,29.2,23.1,92,75,56,30.22,30.01,8,2,0,0.00
2013-12-1,43.3,34.3,25.3,32.1,28.9,23.6,94,81,64,30.12,29.86,4,0,0,0.00
2013-12-2,47.1,38.1,32.4,39.6,33.5,28.7,96,83,75,29.86,29.49,10,3,0,0.00
2013-12-3,46.9,40.2,35.6,42.9,38.9,35.1,99,95,86,29.56,29.44,5,2,0,0.00
2013-12-4,39.2,38.7,38.3,38.9,38.4,38.0,99,99,99,29.55,29.51,2,0,0,0.00
2013-12-5,18.0,14.3,9.3,9.3,7.1,3.3,81,73,67,30.33,30.10,12,6,0,0.00
2013-12-6,12.0,7.6,2.8,3.9,1.1,-2.5,83,74,63,30.60,30.31,8,5,0,0.00
2013-12-7,14.0,5.9,-3.1,4.0,-1.0,-6.5,85,73,55,30.73,30.46,7,2,0,0.00
2013-12-8,20.3,16.1,11.5,17.6,12.1,3.6,94,84,68,30.44,29.92,7,3,0,0.00
2013-12-9,15.1,5.9,-1.1,13.4,0.7,-5.2,93,79,63,30.24,29.98,8,4,0,0.00
2013-12-10,22.8,17.0,2.5,14.8,8.7,-2.8,79,70,53,30.15,29.94,12,4,0,0.00
2013-12-11,20.5,7.0,-3.3,16.7,1.3,-6.9,91,77,60,30.56,30.13,14,4,0,0.00
2013-12-12,29.3,16.8,0.7,18.0,9.4,-3.5,90,73,59,30.47,30.06,7,2,0,0.00
2013-12-13,34.2,23.8,13.1,27.9,20.1,11.0,93,86,77,30.05,29.86,8,2,0,0.00
2013-12-14,25.2,19.7,13.3,22.2,16.7,10.4,93,88,82,30.08,29.93,9,5,0,0.00
2013-12-15,19.4,14.8,10.0,12.3,9.6,6.4,87,80,68,30.07,29.96,8,2,0,0.00
2013-12-16,24.6,18.0,13.1,20.5,14.8,10.0,92,87,80,30.05,29.94,6,2,0,0.00
2013-12-17,37.0,28.5,21.6,29.3,20.7,15.2,92,74,49,30.14,30.00,18,5,0,0.00
2013-12-18,23.5,21.2,18.9,16.2,15.0,13.8,80,77,73,30.11,29.95,5,1,0,0.00
2013-12-19,39.2,34.1,30.0,33.6,31.3,29.0,96,90,80,29.71,29.65,5,3,0,0.00
2013-12-20,29.7,23.6,22.3,28.7,22.1,20.3,97,94,92,29.80,29.70,8,4,0,0.00
2013-12-21,26.1,23.6,21.0,25.4,21.7,18.9,97,92,89,29.80,29.61,7,3,0,0.00
2013-12-22,26.1,19.7,6.1,25.4,17.0,2.6,97,89,82,30.24,29.62,10,6,0,0.00
2013-12-23,5.9,0.9,-6.2,1.9,-5.4,-12.3,86,74,61,30.50,30.24,10,5,0,0.00
2013-12-24,15.8,1.3,-15.2,14.1,-4.6,-18.4,93,76,59,30.50,30.14,7,2,0,0.00
2013-12-25,32.5,24.6,16.2,28.6,21.3,14.5,95,87,79,30.17,30.06,9,4,0,0.00
2013-12-26,40.5,27.7,17.4,28.7,21.8,14.6,91,79,61,30.16,30.00,9,2,0,0.01
2013-12-27,47.5,33.2,18.3,31.2,25.6,17.1,96,75,52,30.18,29.99,9,2,0,0.00
2013-12-28,48.6,40.1,30.7,33.7,31.2,27.3,89,71,55,29.99,29.70,18,3,0,0.00
2013-12-29,29.8,10.2,-0.8,26.7,3.9,-7.3,89,75,56,30.27,29.81,17,9,0,0.00
2013-12-30,15.4,7.0,-4.0,12.3,2.1,-8.8,91,80,70,30.26,30.05,5,1,0,0.00
2013-12-31,15.6,9.4,3.7,9.8,5.6,1.4,91,84,73,30.26,30.08,7,3,0,0.00
2014-1-1,10.4,8.8,6.4,6.8,5.0,2.6,88,84,81,30.25,30.11,8,4,0,0.00
2014-1-2,6.6,2.7,-8.5,2.8,-2.2,-11.5,88,80,69,30.41,30.24,9,4,0,0.00